Time;durP1;ratioP1;P1;durP2;ratioP2;P2;SDS_P1;SDS_P2;PMS_P1;PMS_P2;Temp;Humidity;BMP_temperature;BMP_pressure;BME280_temperature;BME280_humidity;BME280_pressure;Samples;Min_cycle;Max_cycle;Signal;HPM_P1;HPM_P2
2022/10/30 00:00:42;;;;;;;1.10;0.73;;;;;;;;;;6124438;23;20458;-79
2022/10/30 00:03:12;;;;;;;2.42;0.85;;;;;;;;;;6124672;23;20021;-79
2022/10/30 00:05:42;;;;;;;2.45;1.05;;;;;;;;;;6123225;23;20018;-79
2022/10/30 00:08:11;;;;;;;4.15;0.80;;;;;;;;;;6124946;23;20022;-78
2022/10/30 00:10:40;;;;;;;5.53;0.85;;;;;;;;;;6124196;23;20022;-79
2022/10/30 00:13:09;;;;;;;2.28;0.95;;;;;;;;;;6124092;23;20026;-79
2022/10/30 00:15:38;;;;;;;0.90;0.43;;;;;;;;;;6124342;23;20383;-79
2022/10/30 00:18:06;;;;;;;3.53;0.85;;;;;;;;;;6123254;23;20085;-79
2022/10/30 00:20:36;;;;;;;10.75;1.27;;;;;;;;;;6123875;23;20022;-79
2022/10/30 00:23:04;;;;;;;3.92;0.80;;;;;;;;;;6124707;23;20762;-79
2022/10/30 00:25:35;;;;;;;0.68;0.50;;;;;;;;;;6124697;23;20029;-79
2022/10/30 00:28:03;;;;;;;1.70;0.80;;;;;;;;;;6123082;23;20033;-79
2022/10/30 00:30:33;;;;;;;3.05;0.90;;;;;;;;;;6123598;23;20021;-79
2022/10/30 00:33:01;;;;;;;1.30;0.68;;;;;;;;;;6122188;23;20073;-79
2022/10/30 00:35:29;;;;;;;2.63;1.15;;;;;;;;;;6125702;23;20029;-79
2022/10/30 00:37:58;;;;;;;5.63;1.85;;;;;;;;;;6125333;23;20463;-79
2022/10/30 00:40:27;;;;;;;6.43;1.00;;;;;;;;;;6125878;23;20084;-80
2022/10/30 00:42:55;;;;;;;2.50;0.90;;;;;;;;;;6124723;23;20511;-78
2022/10/30 00:45:23;;;;;;;3.83;0.88;;;;;;;;;;6125903;23;20022;-79
2022/10/30 00:47:55;;;;;;;1.35;0.77;;;;;;;;;;6125355;23;20018;-79
2022/10/30 00:50:27;;;;;;;1.35;0.57;;;;;;;;;;6126262;23;20470;-79
2022/10/30 00:52:58;;;;;;;1.75;0.93;;;;;;;;;;6125365;23;20030;-79
2022/10/30 00:55:31;;;;;;;3.90;0.75;;;;;;;;;;6125763;23;20452;-79
2022/10/30 00:58:00;;;;;;;0.85;0.68;;;;;;;;;;6123872;23;20448;-79
2022/10/30 01:00:29;;;;;;;1.42;0.80;;;;;;;;;;6125014;23;20029;-79
2022/10/30 01:02:59;;;;;;;1.13;0.80;;;;;;;;;;6124133;23;20029;-81
2022/10/30 01:05:29;;;;;;;2.72;1.80;;;;;;;;;;6126221;23;20380;-80
2022/10/30 01:07:57;;;;;;;1.00;0.70;;;;;;;;;;6123533;23;20025;-80
2022/10/30 01:10:26;;;;;;;2.80;1.13;;;;;;;;;;6122668;23;20066;-79
2022/10/30 01:12:55;;;;;;;4.65;1.40;;;;;;;;;;6122153;23;20018;-78
2022/10/30 01:15:25;;;;;;;1.40;1.00;;;;;;;;;;6124469;23;20022;-79
2022/10/30 01:18:11;;;;;;;1.40;0.98;;;;;;;;;;6122134;23;20018;-79
2022/10/30 01:20:49;;;;;;;1.42;0.50;;;;;;;;;;6122690;23;20018;-79
2022/10/30 01:23:23;;;;;;;5.38;1.00;;;;;;;;;;6097000;23;20018;-79
2022/10/30 01:25:57;;;;;;;1.95;1.35;;;;;;;;;;6124606;23;20029;-79
2022/10/30 01:28:29;;;;;;;5.60;0.87;;;;;;;;;;6121965;23;20030;-79
2022/10/30 01:31:12;;;;;;;3.53;1.42;;;;;;;;;;6122465;23;20750;-79
2022/10/30 01:33:48;;;;;;;1.05;0.70;;;;;;;;;;6123725;23;20089;-80
2022/10/30 01:36:22;;;;;;;0.75;0.75;;;;;;;;;;6124435;23;20032;-79
2022/10/30 01:38:52;;;;;;;2.13;0.80;;;;;;;;;;6124122;23;20018;-79
2022/10/30 01:41:21;;;;;;;1.58;1.10;;;;;;;;;;6123101;23;20026;-80
2022/10/30 01:43:50;;;;;;;2.50;0.82;;;;;;;;;;6122422;23;20447;-79
2022/10/30 01:46:26;;;;;;;1.30;0.80;;;;;;;;;;6124471;23;20025;-79
2022/10/30 01:49:00;;;;;;;3.08;0.63;;;;;;;;;;6123490;23;20339;-79
2022/10/30 01:51:35;;;;;;;2.05;0.70;;;;;;;;;;6123113;23;20036;-79
2022/10/30 01:54:08;;;;;;;2.53;1.15;;;;;;;;;;6124825;23;20073;-79
2022/10/30 01:56:39;;;;;;;3.38;0.55;;;;;;;;;;6123511;23;20049;-80
2022/10/30 01:59:10;;;;;;;1.83;0.82;;;;;;;;;;6122523;23;20105;-79
2022/10/30 02:01:39;;;;;;;1.30;0.63;;;;;;;;;;6123373;23;20482;-79
2022/10/30 02:04:08;;;;;;;3.05;1.17;;;;;;;;;;6125164;23;20100;-79
2022/10/30 02:06:39;;;;;;;1.45;0.47;;;;;;;;;;6125070;23;20448;-80
2022/10/30 02:09:07;;;;;;;3.75;0.90;;;;;;;;;;6124679;23;20463;-80
2022/10/30 02:11:36;;;;;;;1.58;0.90;;;;;;;;;;6121518;23;20025;-79
2022/10/30 02:14:06;;;;;;;4.38;0.65;;;;;;;;;;6125217;23;20402;-79
2022/10/30 02:16:35;;;;;;;3.47;0.60;;;;;;;;;;6124550;23;20022;-78
2022/10/30 02:19:03;;;;;;;1.13;0.60;;;;;;;;;;6122845;23;20018;-79
2022/10/30 02:21:33;;;;;;;0.68;0.68;;;;;;;;;;6123371;23;20034;-80
2022/10/30 02:24:01;;;;;;;1.63;0.70;;;;;;;;;;6125103;23;20029;-80
2022/10/30 02:26:29;;;;;;;3.28;1.02;;;;;;;;;;6122363;23;20018;-80
2022/10/30 02:28:58;;;;;;;1.85;1.38;;;;;;;;;;6124442;23;20022;-79
2022/10/30 02:31:26;;;;;;;1.42;0.63;;;;;;;;;;6122686;23;20028;-79
2022/10/30 02:33:54;;;;;;;6.03;0.50;;;;;;;;;;6126559;23;20097;-79
2022/10/30 02:36:24;;;;;;;1.50;0.88;;;;;;;;;;6125874;23;20022;-79
2022/10/30 02:38:54;;;;;;;0.70;0.50;;;;;;;;;;6126742;23;20073;-80
2022/10/30 02:41:22;;;;;;;1.58;0.85;;;;;;;;;;6123473;23;20025;-80
2022/10/30 02:43:52;;;;;;;7.13;1.30;;;;;;;;;;6123954;23;20506;-79
2022/10/30 02:46:20;;;;;;;2.00;0.82;;;;;;;;;;6124787;23;20481;-79
2022/10/30 02:48:48;;;;;;;3.25;0.60;;;;;;;;;;6123632;23;20108;-79
2022/10/30 02:51:17;;;;;;;0.73;0.45;;;;;;;;;;6123672;23;20026;-79
2022/10/30 02:53:46;;;;;;;3.33;0.50;;;;;;;;;;6124853;23;20028;-79
2022/10/30 02:56:16;;;;;;;1.90;0.68;;;;;;;;;;6123859;23;20325;-78
2022/10/30 02:58:44;;;;;;;1.65;0.55;;;;;;;;;;6125407;23;20136;-81
2022/10/30 03:01:14;;;;;;;2.47;0.68;;;;;;;;;;6123781;23;20026;-79
2022/10/30 03:03:42;;;;;;;1.48;0.50;;;;;;;;;;6122227;23;20044;-79
2022/10/30 03:06:12;;;;;;;3.05;0.55;;;;;;;;;;6124447;23;20018;-79
2022/10/30 03:08:40;;;;;;;3.40;0.85;;;;;;;;;;6125037;23;20040;-79
2022/10/30 03:11:09;;;;;;;0.70;0.70;;;;;;;;;;6124069;23;20022;-79
2022/10/30 03:13:40;;;;;;;0.98;0.60;;;;;;;;;;6124315;23;20038;-79
2022/10/30 03:16:11;;;;;;;1.95;0.52;;;;;;;;;;6125318;23;20030;-79
2022/10/30 03:18:39;;;;;;;0.30;0.30;;;;;;;;;;6124280;23;20024;-79
2022/10/30 03:21:09;;;;;;;1.45;0.55;;;;;;;;;;6122019;23;20025;-80
2022/10/30 03:23:37;;;;;;;0.50;0.47;;;;;;;;;;6124143;23;20026;-79
2022/10/30 03:26:05;;;;;;;1.83;0.80;;;;;;;;;;6125314;23;20444;-79
2022/10/30 03:28:34;;;;;;;3.60;0.85;;;;;;;;;;6125113;23;20021;-79
2022/10/30 03:31:04;;;;;;;1.15;0.50;;;;;;;;;;6122739;23;20041;-80
2022/10/30 03:33:33;;;;;;;0.73;0.60;;;;;;;;;;6123425;23;20028;-79
2022/10/30 03:36:02;;;;;;;2.72;0.57;;;;;;;;;;6125253;23;20022;-79
2022/10/30 03:38:30;;;;;;;0.20;0.20;;;;;;;;;;6123099;23;20024;-79
2022/10/30 03:40:59;;;;;;;1.02;0.63;;;;;;;;;;6123493;23;20325;-79
2022/10/30 03:43:27;;;;;;;2.33;0.60;;;;;;;;;;6124731;23;20022;-79
2022/10/30 03:45:56;;;;;;;1.02;0.40;;;;;;;;;;6124615;23;20025;-79
2022/10/30 03:48:26;;;;;;;3.08;0.73;;;;;;;;;;6124393;23;20018;-79
2022/10/30 03:50:55;;;;;;;0.70;0.70;;;;;;;;;;6121932;23;20030;-79
2022/10/30 03:53:25;;;;;;;0.93;0.63;;;;;;;;;;6123362;23;20467;-79
2022/10/30 03:55:53;;;;;;;0.77;0.50;;;;;;;;;;6124271;23;20485;-79
2022/10/30 03:58:22;;;;;;;1.42;0.70;;;;;;;;;;6123053;23;20021;-79
2022/10/30 04:00:50;;;;;;;2.28;0.90;;;;;;;;;;6123385;23;20018;-79
2022/10/30 04:03:18;;;;;;;1.13;0.73;;;;;;;;;;6122607;23;20026;-79
2022/10/30 04:05:49;;;;;;;5.22;0.73;;;;;;;;;;6124603;23;20022;-80
2022/10/30 04:08:18;;;;;;;0.68;0.40;;;;;;;;;;6124040;23;20057;-81
2022/10/30 04:10:47;;;;;;;1.67;0.60;;;;;;;;;;6123295;23;20325;-82
2022/10/30 04:13:17;;;;;;;2.20;0.70;;;;;;;;;;6125448;23;20026;-85
2022/10/30 04:15:48;;;;;;;0.90;0.50;;;;;;;;;;6124484;23;20074;-83
2022/10/30 04:18:24;;;;;;;1.70;0.50;;;;;;;;;;6124291;23;20212;-80
2022/10/30 04:20:54;;;;;;;1.13;0.55;;;;;;;;;;6122802;23;20539;-82
2022/10/30 04:23:23;;;;;;;1.73;0.55;;;;;;;;;;6125012;23;20072;-80
2022/10/30 04:25:51;;;;;;;9.73;0.88;;;;;;;;;;6124454;23;20151;-79
2022/10/30 04:28:20;;;;;;;8.05;0.70;;;;;;;;;;6121172;23;20290;-80
2022/10/30 04:30:49;;;;;;;1.95;0.55;;;;;;;;;;6120793;23;20347;-79
2022/10/30 04:33:17;;;;;;;1.55;1.25;;;;;;;;;;6120260;23;20021;-80
2022/10/30 04:35:45;;;;;;;1.50;0.93;;;;;;;;;;6121370;23;20037;-80
2022/10/30 04:38:17;;;;;;;2.03;0.60;;;;;;;;;;6123695;23;20022;-79
2022/10/30 04:40:46;;;;;;;0.70;0.40;;;;;;;;;;6120115;23;20056;-80
2022/10/30 04:43:14;;;;;;;0.70;0.70;;;;;;;;;;6124002;23;20408;-81
2022/10/30 04:45:43;;;;;;;3.60;0.70;;;;;;;;;;6122967;23;20040;-81
2022/10/30 04:48:12;;;;;;;1.15;0.55;;;;;;;;;;6124053;23;20037;-87
2022/10/30 04:50:40;;;;;;;2.30;0.70;;;;;;;;;;6123253;23;20078;-83
2022/10/30 04:53:10;;;;;;;13.10;0.60;;;;;;;;;;6123429;23;20033;-83
2022/10/30 04:55:43;;;;;;;6.75;1.33;;;;;;;;;;6124850;23;20022;-83
2022/10/30 04:58:11;;;;;;;3.30;1.20;;;;;;;;;;6123327;23;20018;-83
2022/10/30 05:00:39;;;;;;;6.10;0.50;;;;;;;;;;6124298;23;20032;-83
2022/10/30 05:03:08;;;;;;;1.50;1.02;;;;;;;;;;6123772;23;20030;-83
2022/10/30 05:05:36;;;;;;;4.55;1.40;;;;;;;;;;6124440;23;20022;-83
2022/10/30 05:08:04;;;;;;;7.22;0.70;;;;;;;;;;6125031;23;20022;-83
2022/10/30 05:10:33;;;;;;;1.45;0.50;;;;;;;;;;6124262;23;20522;-83
2022/10/30 05:13:02;;;;;;;0.40;0.20;;;;;;;;;;6124166;23;20352;-83
2022/10/30 05:15:31;;;;;;;0.85;0.68;;;;;;;;;;6123753;23;20018;-84
2022/10/30 05:17:59;;;;;;;0.60;0.60;;;;;;;;;;6123668;23;20030;-83
2022/10/30 05:20:28;;;;;;;2.45;0.70;;;;;;;;;;6124287;23;20022;-83
2022/10/30 05:22:57;;;;;;;1.30;0.70;;;;;;;;;;6123035;23;20303;-82
2022/10/30 05:25:28;;;;;;;1.13;0.90;;;;;;;;;;6123025;23;20029;-83
2022/10/30 05:27:59;;;;;;;0.95;0.55;;;;;;;;;;6125297;23;20105;-83
2022/10/30 05:30:30;;;;;;;0.25;0.25;;;;;;;;;;6124929;23;20399;-83
2022/10/30 05:32:59;;;;;;;1.88;0.60;;;;;;;;;;6121634;23;20034;-83
2022/10/30 05:35:28;;;;;;;2.03;1.00;;;;;;;;;;6124198;23;20324;-83
2022/10/30 05:37:57;;;;;;;2.15;0.57;;;;;;;;;;6125391;23;20024;-83
2022/10/30 05:40:25;;;;;;;0.60;0.52;;;;;;;;;;6124227;23;20022;-81
2022/10/30 05:42:53;;;;;;;2.05;0.43;;;;;;;;;;6123210;23;20026;-83
2022/10/30 05:45:22;;;;;;;0.28;0.22;;;;;;;;;;6124265;23;20025;-83
2022/10/30 05:47:56;;;;;;;0.82;0.50;;;;;;;;;;6125087;23;20470;-83
2022/10/30 05:50:25;;;;;;;1.75;0.60;;;;;;;;;;6123655;23;20029;-83
2022/10/30 05:52:55;;;;;;;1.65;0.65;;;;;;;;;;6122819;23;20029;-83
2022/10/30 05:55:24;;;;;;;3.50;1.73;;;;;;;;;;6124662;23;20053;-83
2022/10/30 05:57:55;;;;;;;1.27;0.90;;;;;;;;;;6124773;23;20025;-83
2022/10/30 06:00:25;;;;;;;1.33;0.50;;;;;;;;;;6124027;23;20022;-83
2022/10/30 06:02:53;;;;;;;1.75;0.75;;;;;;;;;;6124016;23;20022;-83
2022/10/30 06:05:23;;;;;;;2.00;0.80;;;;;;;;;;6123616;23;20022;-83
2022/10/30 06:07:55;;;;;;;14.25;2.58;;;;;;;;;;6122849;23;20022;-83
2022/10/30 06:10:23;;;;;;;0.70;0.55;;;;;;;;;;6124882;23;20049;-83
2022/10/30 06:12:55;;;;;;;1.77;0.88;;;;;;;;;;6123852;23;20071;-81
2022/10/30 06:15:24;;;;;;;0.77;0.75;;;;;;;;;;6125478;23;20327;-83
2022/10/30 06:17:52;;;;;;;0.30;0.30;;;;;;;;;;6122958;23;20026;-82
2022/10/30 06:20:22;;;;;;;0.57;0.43;;;;;;;;;;6123546;23;20069;-84
2022/10/30 06:22:59;;;;;;;0.77;0.77;;;;;;;;;;6122191;23;20030;-83
2022/10/30 06:25:30;;;;;;;0.65;0.60;;;;;;;;;;6124969;23;20033;-83
2022/10/30 06:28:04;;;;;;;;;;;;;;;;;;6124625;23;20052;-84
2022/10/30 06:30:33;;;;;;;1.50;0.50;;;;;;;;;;6124653;23;19999;-83
2022/10/30 06:33:02;;;;;;;2.17;0.45;;;;;;;;;;6122866;23;20049;-83
2022/10/30 06:35:31;;;;;;;3.55;1.15;;;;;;;;;;6120707;23;20372;-83
2022/10/30 06:38:00;;;;;;;1.65;0.75;;;;;;;;;;6123290;23;20551;-83
2022/10/30 06:40:29;;;;;;;0.55;0.55;;;;;;;;;;6123939;23;20057;-83
2022/10/30 06:42:58;;;;;;;0.73;0.70;;;;;;;;;;6124056;23;20049;-84
2022/10/30 06:45:27;;;;;;;0.30;0.30;;;;;;;;;;6123885;23;20033;-82
2022/10/30 06:47:55;;;;;;;0.80;0.80;;;;;;;;;;6125572;23;20065;-84
2022/10/30 06:50:24;;;;;;;2.75;1.00;;;;;;;;;;6124247;23;20463;-84
2022/10/30 06:52:54;;;;;;;5.57;1.10;;;;;;;;;;6124411;23;20029;-83
2022/10/30 06:55:23;;;;;;;0.88;0.52;;;;;;;;;;6125588;23;20026;-83
2022/10/30 06:57:55;;;;;;;1.15;0.50;;;;;;;;;;6125252;23;20560;-83
2022/10/30 07:00:24;;;;;;;0.95;0.65;;;;;;;;;;6126000;23;20026;-84
2022/10/30 07:02:59;;;;;;;1.67;0.77;;;;;;;;;;6125234;23;20036;-84
2022/10/30 07:05:29;;;;;;;4.57;0.50;;;;;;;;;;6123128;23;20332;-84
2022/10/30 07:07:58;;;;;;;1.30;0.57;;;;;;;;;;6126085;23;20463;-83
2022/10/30 07:10:27;;;;;;;4.78;0.82;;;;;;;;;;6126377;23;20022;-83
2022/10/30 07:12:57;;;;;;;0.25;0.25;;;;;;;;;;6128589;23;20074;-83
2022/10/30 07:15:27;;;;;;;1.63;0.82;;;;;;;;;;6133783;23;20029;-85
2022/10/30 07:17:56;;;;;;;3.30;0.50;;;;;;;;;;6125509;23;20029;-82
2022/10/30 07:20:25;;;;;;;1.38;0.57;;;;;;;;;;6121559;23;20050;-82
2022/10/30 07:22:53;;;;;;;2.30;0.73;;;;;;;;;;6123249;23;20022;-82
2022/10/30 07:25:22;;;;;;;7.47;1.02;;;;;;;;;;6124105;23;20018;-81
2022/10/30 07:27:52;;;;;;;0.63;0.57;;;;;;;;;;6121868;23;20025;-82
2022/10/30 07:30:21;;;;;;;0.98;0.77;;;;;;;;;;6121069;23;20026;-83
2022/10/30 07:32:57;;;;;;;5.07;0.57;;;;;;;;;;6121384;23;20534;-82
2022/10/30 07:35:26;;;;;;;2.97;0.85;;;;;;;;;;6121217;23;20467;-81
2022/10/30 07:37:54;;;;;;;1.08;0.73;;;;;;;;;;6121655;23;20022;-82
2022/10/30 07:40:23;;;;;;;2.22;0.93;;;;;;;;;;6120454;23;20029;-83
2022/10/30 07:42:58;;;;;;;6.85;0.82;;;;;;;;;;6120626;23;20026;-83
2022/10/30 07:45:28;;;;;;;0.60;0.60;;;;;;;;;;6120220;23;20032;-83
2022/10/30 07:47:57;;;;;;;1.17;0.45;;;;;;;;;;6121477;23;20028;-83
2022/10/30 07:50:26;;;;;;;1.50;0.75;;;;;;;;;;6121762;23;20324;-84
2022/10/30 07:52:55;;;;;;;1.20;1.05;;;;;;;;;;6119605;23;20108;-83
2022/10/30 07:55:23;;;;;;;1.40;0.63;;;;;;;;;;6120446;23;20022;-83
2022/10/30 07:57:51;;;;;;;1.27;0.70;;;;;;;;;;6121244;23;20440;-83
2022/10/30 08:00:21;;;;;;;0.30;0.28;;;;;;;;;;6119690;23;20018;-83
2022/10/30 08:02:52;;;;;;;1.40;0.88;;;;;;;;;;6120638;23;20022;-84
2022/10/30 08:05:21;;;;;;;3.75;0.75;;;;;;;;;;6118806;23;20519;-83
2022/10/30 08:07:57;;;;;;;3.58;0.90;;;;;;;;;;6121157;23;20056;-83
2022/10/30 08:10:26;;;;;;;2.53;0.73;;;;;;;;;;6119543;23;20026;-83
2022/10/30 08:12:55;;;;;;;2.55;0.70;;;;;;;;;;6119302;23;20026;-83
2022/10/30 08:15:24;;;;;;;1.17;0.80;;;;;;;;;;6118361;23;20037;-83
2022/10/30 08:17:53;;;;;;;2.13;0.82;;;;;;;;;;6119672;23;20371;-83
2022/10/30 08:20:22;;;;;;;5.53;1.30;;;;;;;;;;6120645;23;20026;-83
2022/10/30 08:22:51;;;;;;;5.95;0.98;;;;;;;;;;6119745;23;20442;-83
2022/10/30 08:25:20;;;;;;;3.55;0.88;;;;;;;;;;6120181;23;20022;-83
2022/10/30 08:27:55;;;;;;;5.95;1.45;;;;;;;;;;6119649;23;20032;-83
2022/10/30 08:30:25;;;;;;;2.17;1.20;;;;;;;;;;6120081;23;20026;-82
2022/10/30 08:32:57;;;;;;;1.48;0.65;;;;;;;;;;6119268;23;20018;-82
2022/10/30 08:35:26;;;;;;;8.93;1.13;;;;;;;;;;6118672;23;20056;-82
2022/10/30 08:37:57;;;;;;;1.98;0.47;;;;;;;;;;6117308;23;20527;-82
2022/10/30 08:40:27;;;;;;;6.78;0.60;;;;;;;;;;6120120;23;20025;-81
2022/10/30 08:42:56;;;;;;;2.58;1.27;;;;;;;;;;6118893;23;20026;-82
2022/10/30 08:45:26;;;;;;;0.70;0.38;;;;;;;;;;6119085;23;20022;-80
2022/10/30 08:47:59;;;;;;;3.97;0.60;;;;;;;;;;6120152;23;20471;-82
2022/10/30 08:50:28;;;;;;;3.60;0.88;;;;;;;;;;6117466;23;20053;-81
2022/10/30 08:52:57;;;;;;;1.17;0.82;;;;;;;;;;6119331;23;20028;-82
2022/10/30 08:55:25;;;;;;;1.38;0.82;;;;;;;;;;6121231;23;20026;-82
2022/10/30 08:57:54;;;;;;;1.13;0.47;;;;;;;;;;6119604;23;20029;-82
2022/10/30 09:00:22;;;;;;;3.10;1.10;;;;;;;;;;6119732;23;20104;-83
2022/10/30 09:02:52;;;;;;;1.63;0.77;;;;;;;;;;6119400;23;20018;-82
2022/10/30 09:05:20;;;;;;;0.85;0.40;;;;;;;;;;6118227;23;20026;-81
2022/10/30 09:07:49;;;;;;;0.68;0.60;;;;;;;;;;6119809;23;20037;-83
2022/10/30 09:10:20;;;;;;;2.05;0.85;;;;;;;;;;6121042;23;20034;-82
2022/10/30 09:12:48;;;;;;;1.30;0.43;;;;;;;;;;6120185;23;20029;-83
2022/10/30 09:15:17;;;;;;;2.30;0.57;;;;;;;;;;6120594;23;20030;-83
2022/10/30 09:17:47;;;;;;;1.08;0.70;;;;;;;;;;6118837;23;20025;-83
2022/10/30 09:20:17;;;;;;;1.15;0.73;;;;;;;;;;6118048;23;20021;-83
2022/10/30 09:22:45;;;;;;;1.00;0.73;;;;;;;;;;6118881;23;20029;-84
2022/10/30 09:25:14;;;;;;;7.35;0.63;;;;;;;;;;6116782;23;20041;-84
2022/10/30 09:27:43;;;;;;;3.30;0.45;;;;;;;;;;6116998;23;20093;-84
2022/10/30 09:30:12;;;;;;;1.63;0.88;;;;;;;;;;6121349;23;20032;-83
2022/10/30 09:32:40;;;;;;;3.47;1.00;;;;;;;;;;6126046;23;20025;-83
2022/10/30 09:35:09;;;;;;;1.42;0.77;;;;;;;;;;6124280;23;20025;-84
2022/10/30 09:37:39;;;;;;;1.75;0.77;;;;;;;;;;6122832;23;20022;-83
2022/10/30 09:40:14;;;;;;;3.33;1.38;;;;;;;;;;6121496;23;20022;-83
2022/10/30 09:42:44;;;;;;;2.35;0.75;;;;;;;;;;6124255;23;20026;-83
2022/10/30 09:45:33;;;;;;;2.17;0.95;;;;;;;;;;6125731;23;20029;-84
2022/10/30 09:48:08;;;;;;;0.95;0.47;;;;;;;;;;6124113;23;20026;-85
2022/10/30 09:50:41;;;;;;;4.30;0.75;;;;;;;;;;6127316;23;20022;-85
2022/10/30 09:53:16;;;;;;;2.78;0.75;;;;;;;;;;6124706;23;20014;-85
2022/10/30 09:55:48;;;;;;;0.93;0.70;;;;;;;;;;6123149;23;20459;-84
2022/10/30 09:58:23;;;;;;;3.63;1.50;;;;;;;;;;6124521;23;20018;-84
2022/10/30 10:00:54;;;;;;;6.97;0.88;;;;;;;;;;6121926;23;20018;-84
2022/10/30 10:03:32;;;;;;;1.15;0.65;;;;;;;;;;6125110;23;20026;-85
2022/10/30 10:06:02;;;;;;;4.97;0.77;;;;;;;;;;6123802;23;20462;-84
2022/10/30 10:08:35;;;;;;;0.47;0.40;;;;;;;;;;6123122;23;20352;-84
2022/10/30 10:11:04;;;;;;;3.38;0.65;;;;;;;;;;6123057;23;20468;-84
2022/10/30 10:13:37;;;;;;;0.70;0.52;;;;;;;;;;6125144;23;20018;-84
2022/10/30 10:16:08;;;;;;;10.18;0.77;;;;;;;;;;6123097;23;20348;-84
2022/10/30 10:18:40;;;;;;;3.50;0.68;;;;;;;;;;6124169;23;20794;-84
2022/10/30 10:21:11;;;;;;;0.75;0.45;;;;;;;;;;6124722;23;20051;-84
2022/10/30 10:23:44;;;;;;;2.45;1.15;;;;;;;;;;6126606;23;20032;-85
2022/10/30 10:26:23;;;;;;;1.85;1.75;;;;;;;;;;6126819;23;20459;-85
2022/10/30 10:28:55;;;;;;;3.47;0.93;;;;;;;;;;6126908;23;20025;-85
2022/10/30 10:31:28;;;;;;;1.63;0.55;;;;;;;;;;6125599;23;20022;-85
2022/10/30 10:34:02;;;;;;;2.53;1.33;;;;;;;;;;6123689;23;20029;-84
2022/10/30 10:36:34;;;;;;;2.67;0.60;;;;;;;;;;6127293;23;20028;-84
2022/10/30 10:39:20;;;;;;;3.65;0.85;;;;;;;;;;6129176;23;20060;-84
2022/10/30 10:41:56;;;;;;;1.75;0.85;;;;;;;;;;6125871;23;20021;-84
2022/10/30 10:44:35;;;;;;;0.85;0.43;;;;;;;;;;6125992;23;20028;-83
2022/10/30 10:47:10;;;;;;;2.95;0.60;;;;;;;;;;6126928;23;20093;-83
2022/10/30 10:49:53;;;;;;;2.20;0.60;;;;;;;;;;6125265;23;20105;-82
2022/10/30 10:52:23;;;;;;;3.00;0.63;;;;;;;;;;6125473;23;20018;-84
2022/10/30 10:54:54;;;;;;;2.33;1.05;;;;;;;;;;6126622;23;20074;-84
2022/10/30 10:57:26;;;;;;;1.52;0.70;;;;;;;;;;6125085;23;20034;-83
2022/10/30 10:59:57;;;;;;;4.18;0.47;;;;;;;;;;6125292;23;20538;-83
2022/10/30 11:02:31;;;;;;;4.40;1.23;;;;;;;;;;6124388;23;20034;-83
2022/10/30 11:05:02;;;;;;;1.15;0.50;;;;;;;;;;6126160;23;20022;-83
2022/10/30 11:07:31;;;;;;;1.35;0.60;;;;;;;;;;6126080;23;20028;-83
2022/10/30 11:09:59;;;;;;;3.10;1.20;;;;;;;;;;6124712;23;20032;-82
2022/10/30 11:12:30;;;;;;;3.20;0.85;;;;;;;;;;6125779;23;20029;-83
2022/10/30 11:15:10;;;;;;;1.67;1.17;;;;;;;;;;6125753;23;20018;-83
2022/10/30 11:17:41;;;;;;;7.03;1.38;;;;;;;;;;6126141;23;20026;-84
2022/10/30 11:20:14;;;;;;;0.88;0.80;;;;;;;;;;6125350;23;20018;-84
2022/10/30 11:22:45;;;;;;;0.82;0.70;;;;;;;;;;6124802;23;20232;-83
2022/10/30 11:25:24;;;;;;;4.75;0.63;;;;;;;;;;6120893;23;20029;-85
2022/10/30 11:28:01;;;;;;;2.17;0.68;;;;;;;;;;6122955;23;20026;-84
2022/10/30 11:30:31;;;;;;;2.80;0.93;;;;;;;;;;6124546;23;20018;-84
2022/10/30 11:33:00;;;;;;;0.95;0.40;;;;;;;;;;6122762;23;20030;-84
2022/10/30 11:35:28;;;;;;;1.45;0.55;;;;;;;;;;6125976;23;20049;-84
2022/10/30 11:38:13;;;;;;;5.13;1.60;;;;;;;;;;6124953;23;20022;-85
2022/10/30 11:40:47;;;;;;;4.47;1.08;;;;;;;;;;6125897;23;20022;-84
2022/10/30 11:43:20;;;;;;;1.08;0.38;;;;;;;;;;6084391;23;20080;-84
2022/10/30 11:45:49;;;;;;;3.72;0.80;;;;;;;;;;6125049;23;20448;-84
2022/10/30 11:48:21;;;;;;;0.95;0.70;;;;;;;;;;6125491;23;20030;-84
2022/10/30 11:50:51;;;;;;;1.40;0.68;;;;;;;;;;6125517;23;20049;-84
2022/10/30 11:53:22;;;;;;;2.15;0.50;;;;;;;;;;6125643;23;20088;-85
2022/10/30 11:55:53;;;;;;;2.25;0.77;;;;;;;;;;6125964;23;20064;-85
2022/10/30 11:58:26;;;;;;;7.43;1.67;;;;;;;;;;6126271;23;20065;-85
2022/10/30 12:01:04;;;;;;;1.45;0.75;;;;;;;;;;6123384;23;20032;-85
2022/10/30 12:03:36;;;;;;;3.58;0.50;;;;;;;;;;6125698;23;20329;-84
2022/10/30 12:06:08;;;;;;;1.25;0.60;;;;;;;;;;6124244;23;20058;-84
2022/10/30 12:08:37;;;;;;;1.73;0.82;;;;;;;;;;6125919;23;20467;-86
2022/10/30 12:11:06;;;;;;;2.47;0.55;;;;;;;;;;6125262;23;20022;-86
2022/10/30 12:13:38;;;;;;;5.63;0.73;;;;;;;;;;6126804;23;20026;-86
2022/10/30 12:16:08;;;;;;;3.65;0.90;;;;;;;;;;6127180;23;20046;-85
2022/10/30 12:18:37;;;;;;;3.15;1.60;;;;;;;;;;6123813;23;20028;-85
2022/10/30 12:21:06;;;;;;;1.20;0.57;;;;;;;;;;6127079;23;20025;-85
2022/10/30 12:23:35;;;;;;;1.00;0.52;;;;;;;;;;6122979;23;20025;-88
2022/10/30 12:26:10;;;;;;;0.52;0.52;;;;;;;;;;6125832;23;20022;-89
2022/10/30 12:28:40;;;;;;;1.83;0.50;;;;;;;;;;6123950;23;20029;-89
2022/10/30 12:31:11;;;;;;;1.35;0.70;;;;;;;;;;6125320;23;20022;-88
2022/10/30 12:33:43;;;;;;;2.63;0.65;;;;;;;;;;6124731;23;20022;-87
2022/10/30 12:36:14;;;;;;;0.65;0.40;;;;;;;;;;6122052;23;20102;-88
2022/10/30 12:38:44;;;;;;;4.03;1.00;;;;;;;;;;6123651;23;20049;-88
2022/10/30 12:41:23;;;;;;;2.05;0.68;;;;;;;;;;6124393;23;20126;-87
2022/10/30 12:43:58;;;;;;;1.08;0.55;;;;;;;;;;6126225;23;20068;-88
2022/10/30 12:46:29;;;;;;;1.95;0.60;;;;;;;;;;6124962;23;20045;-88
2022/10/30 12:49:02;;;;;;;2.35;0.68;;;;;;;;;;6125479;23;20022;-88
2022/10/30 12:51:34;;;;;;;2.55;0.55;;;;;;;;;;6124994;23;20014;-88
2022/10/30 12:54:05;;;;;;;7.05;0.63;;;;;;;;;;6126135;23;20030;-87
2022/10/30 12:56:36;;;;;;;1.75;0.50;;;;;;;;;;6125388;23;20030;-88
2022/10/30 12:59:22;;;;;;;2.85;0.57;;;;;;;;;;6125988;23;20348;-87
2022/10/30 13:01:53;;;;;;;1.25;0.60;;;;;;;;;;6110171;23;20029;-88
2022/10/30 13:04:23;;;;;;;2.22;0.63;;;;;;;;;;6124152;23;20026;-88
2022/10/30 13:06:53;;;;;;;2.95;1.08;;;;;;;;;;6125570;23;20018;-86
2022/10/30 13:09:27;;;;;;;5.30;1.00;;;;;;;;;;6124645;23;20077;-88
2022/10/30 13:11:59;;;;;;;0.95;0.57;;;;;;;;;;6124119;23;20022;-88
2022/10/30 13:14:32;;;;;;;3.22;0.75;;;;;;;;;;6126440;23;20065;-87
2022/10/30 13:17:00;;;;;;;3.38;0.60;;;;;;;;;;6125346;23;20029;-88
2022/10/30 13:19:29;;;;;;;2.28;1.20;;;;;;;;;;6125218;23;20022;-88
2022/10/30 13:22:01;;;;;;;1.00;0.70;;;;;;;;;;6124252;23;20014;-88
2022/10/30 13:24:36;;;;;;;1.67;0.90;;;;;;;;;;6125086;23;20034;-88
2022/10/30 13:27:04;;;;;;;;;;;;;;;;;;6124899;23;20102;-88
2022/10/30 13:29:38;;;;;;;3.33;0.55;;;;;;;;;;6125177;23;19927;-87
2022/10/30 13:32:15;;;;;;;2.08;0.52;;;;;;;;;;6123879;23;20030;-87
2022/10/30 13:34:49;;;;;;;2.20;1.33;;;;;;;;;;6124340;23;20033;-86
2022/10/30 13:37:20;;;;;;;2.67;0.60;;;;;;;;;;6125310;23;20101;-86
2022/10/30 13:39:55;;;;;;;1.90;1.10;;;;;;;;;;6125577;23;20022;-87
2022/10/30 13:42:29;;;;;;;2.97;1.23;;;;;;;;;;6124538;23;20469;-87
2022/10/30 13:45:04;;;;;;;2.10;1.00;;;;;;;;;;6125197;23;20033;-87
2022/10/30 13:47:36;;;;;;;2.08;1.23;;;;;;;;;;6123681;23;20692;-87
2022/10/30 13:50:25;;;;;;;1.35;1.25;;;;;;;;;;6124081;23;20026;-88
2022/10/30 13:52:56;;;;;;;0.73;0.63;;;;;;;;;;6117989;23;20416;-87
2022/10/30 13:55:25;;;;;;;6.65;2.35;;;;;;;;;;6125228;23;20032;-87
2022/10/30 13:57:58;;;;;;;5.68;1.75;;;;;;;;;;6123945;23;20033;-85
2022/10/30 14:00:31;;;;;;;2.15;0.88;;;;;;;;;;6120264;23;20110;-88
2022/10/30 14:03:07;;;;;;;4.18;0.55;;;;;;;;;;6121332;23;20486;-87
2022/10/30 14:05:39;;;;;;;7.55;0.68;;;;;;;;;;6121664;23;20110;-88
2022/10/30 14:08:10;;;;;;;8.18;1.42;;;;;;;;;;6119853;23;20032;-87
2022/10/30 14:10:44;;;;;;;4.45;1.23;;;;;;;;;;6119087;23;20335;-88
2022/10/30 14:13:18;;;;;;;6.17;1.70;;;;;;;;;;6120746;23;20030;-87
2022/10/30 14:15:47;;;;;;;7.38;0.93;;;;;;;;;;6118094;23;20026;-87
2022/10/30 14:18:25;;;;;;;2.20;0.85;;;;;;;;;;6122827;23;20022;-87
2022/10/30 14:20:54;;;;;;;5.47;0.85;;;;;;;;;;6122109;23;20022;-87
2022/10/30 14:23:24;;;;;;;3.35;1.50;;;;;;;;;;6121976;23;20018;-86
2022/10/30 14:26:13;;;;;;;1.63;0.65;;;;;;;;;;6120987;23;20467;-87
2022/10/30 14:28:51;;;;;;;2.30;0.65;;;;;;;;;;6116101;23;20101;-86
2022/10/30 14:31:33;;;;;;;3.17;0.77;;;;;;;;;;6120497;23;20030;-87
2022/10/30 14:34:02;;;;;;;4.40;0.60;;;;;;;;;;6096876;23;20389;-87
2022/10/30 14:36:49;;;;;;;2.78;0.90;;;;;;;;;;6121601;23;20022;-87
2022/10/30 14:39:28;;;;;;;3.50;0.65;;;;;;;;;;6121224;23;20030;-87
2022/10/30 14:42:01;;;;;;;4.38;0.90;;;;;;;;;;6102098;23;20032;-87
2022/10/30 14:44:48;;;;;;;5.60;1.13;;;;;;;;;;6122488;23;20029;-84
2022/10/30 14:47:44;;;;;;;6.13;1.15;;;;;;;;;;6122662;23;20021;-87
2022/10/30 14:50:17;;;;;;;3.75;0.80;;;;;;;;;;6121775;23;20343;-87
2022/10/30 14:52:53;;;;;;;2.85;1.20;;;;;;;;;;6122291;23;20021;-86
2022/10/30 14:55:30;;;;;;;1.92;0.50;;;;;;;;;;6121896;23;20044;-86
2022/10/30 14:58:31;;;;;;;5.10;0.93;;;;;;;;;;6121246;23;20483;-86
2022/10/30 15:01:18;;;;;;;1.98;0.90;;;;;;;;;;6058507;23;20031;-86
2022/10/30 15:03:56;;;;;;;8.65;1.92;;;;;;;;;;6060606;23;20069;-86
2022/10/30 15:06:32;;;;;;;3.08;0.57;;;;;;;;;;6100393;23;20053;-86